Aérodrome :
LOGIN :

S'inscrire | Disclaimer

   EN    FR    IT 

 










Légende :    VFR   VFR Marginal   IFR   IFR Intensif   IFR Très Intensif
Visi : 
Plafond : 
>= 8 km
>= 3000ft
5 à 8 km
1000 à 3000 ft
1500m à 5 km
500 à 1000 ft
800 à 1500m
200 à 500 ft
< 800m
< 200 ft
Symboles :   Orages  Brouillard  Fortes neiges  Fortes précipitations  Vent > 20 kt
SIGMETs :   Divers  Orages  Givrage  Turbulence  Onde Orograph.  Cendres Volcan.







- Altitude de l'aérodrome : 1058 ft
- Code IATA : SCN


EDDR - Saarbrücken

DERNIER METAR :
  • 232350Z AUTO 21014KT 9999 // BKN042/// 12/06 Q1012

METARs EXPIRÉS :
  • 232320Z AUTO 21013KT 9999 // FEW044/// BKN070/// 12/06 Q1012
  • 232250Z AUTO 21014KT 9999 // SCT040/// 12/07 Q1012
  • 232220Z AUTO 21016KT 9999 // SCT041/// BKN065/// 12/07 Q1012
  • 232150Z 21016KT 9999 BKN042 BKN052 13/07 Q1012
  • 232120Z 21015KT 9999 BKN047 BKN060 13/07 Q1012 NOSIG

TAF TAF EDDR
Valide du 24 à 00h jusqu'au 25 à 00h UTC


232300Z 2400/2424 21012KT 9999 BKN030
TEMPO 2406/2415 21015G25KT
TEMPO 2407/2412 RA BKN012
TEMPO 2412/2421 4000 RA BKN008
TEMPO 2421/2424 3000 BR BKN005
Pas de NOTAMs connus pour ce terrain.



MET'MAP, la Météo Aéronautique d'un coup d'oeil ! - Copyright ORBIFLY Décembre 2007 - Disclaimer

ORBIFLY MET'MAP TEAM :

Programmation & Développement : Alexandra Zaïnal
Conception & Développement : Baudouin d'Aumeries
Co-Programmation & Développement : Marc-Olivier Méhu
Soutien technique & logistique : Manuel Goepfert

Contact : metmap@orbifly.com




SOURCES & CREDITS :

   NOAA